If you wish to contribute or participate in the discussions about articles you are invited to join SKYbrary as a registered user

 Actions

Isfahan International Airport

From SKYbrary Wiki

OIFM
Airport
ICAO: OIFM – IATA: IFN
Summary
Name Isfahan International Airport
Region Middle East
Territory Iran IR.gif
Location Qahjavarestan, Isfahan Province
Serving Isfahan
Elevation 1,541.983 m
5,059 ft1,541.983 m
Coordinates 32° 44' 50.34" N, 51° 52' 19.65" E
Runways
Designator Length Width Surface ROPS
08L/26R 4397 m14,425.853 ft
45 m147.638 ft
ASP yes/yes
08R/26L 4397 m14,425.853 ft
45 m147.638 ft
ASP yes/yes


METAR
Observation OIFM 201630Z 27010KT 9999 FEW035 16/M02 Q1014 A2995
Station Esfahan
Date/Time 20 April 2019 16:30:00
Wind direction 270°
Wind speed 10 kts
Lowest cloud amount few clouds
Temperature 16°C
Dew point
Humidity 29%
QNH 1014 hPa
Weather condition n/a

International airport 15km8.099 nm
15,000 m
49,212.598 ft
north east of the city of Isfahan, Iran.

Climatology

Cold semi-arid climate (Köppen climate classification BWk).

Maps

Terrain

Loading map...

Airport Layout

Loading map...


Accidents & Serious Incidents at or in vicinity of OIFM

None on SKYbrary